sensor_id;sensor_type;location;lat;lon;timestamp;P1;durP1;ratioP1;P2;durP2;ratioP2
58412;SDS011;44209;52.952;6.790;2023-05-07T00:00:00;24.58;;;18.92;;
58412;SDS011;44209;52.952;6.790;2023-05-07T00:02:26;25.27;;;20.08;;
58412;SDS011;44209;52.952;6.790;2023-05-07T00:04:52;23.30;;;19.02;;
58412;SDS011;44209;52.952;6.790;2023-05-07T00:07:18;27.42;;;21.50;;
58412;SDS011;44209;52.952;6.790;2023-05-07T00:09:43;24.27;;;20.02;;
58412;SDS011;44209;52.952;6.790;2023-05-07T00:12:09;28.45;;;21.10;;
58412;SDS011;44209;52.952;6.790;2023-05-07T00:14:35;27.67;;;20.40;;
58412;SDS011;44209;52.952;6.790;2023-05-07T00:17:01;24.92;;;19.45;;
58412;SDS011;44209;52.952;6.790;2023-05-07T00:19:27;25.00;;;20.75;;
58412;SDS011;44209;52.952;6.790;2023-05-07T00:21:52;31.08;;;21.17;;
58412;SDS011;44209;52.952;6.790;2023-05-07T00:24:19;26.42;;;20.52;;
58412;SDS011;44209;52.952;6.790;2023-05-07T00:26:45;26.35;;;20.90;;
58412;SDS011;44209;52.952;6.790;2023-05-07T00:29:10;27.80;;;21.48;;
58412;SDS011;44209;52.952;6.790;2023-05-07T00:31:36;27.52;;;21.65;;
58412;SDS011;44209;52.952;6.790;2023-05-07T00:34:02;26.58;;;21.23;;
58412;SDS011;44209;52.952;6.790;2023-05-07T00:36:28;28.20;;;22.25;;
58412;SDS011;44209;52.952;6.790;2023-05-07T00:38:54;29.30;;;21.63;;
58412;SDS011;44209;52.952;6.790;2023-05-07T00:41:20;29.02;;;21.83;;
58412;SDS011;44209;52.952;6.790;2023-05-07T00:43:46;25.88;;;21.80;;
58412;SDS011;44209;52.952;6.790;2023-05-07T00:46:12;29.83;;;22.13;;
58412;SDS011;44209;52.952;6.790;2023-05-07T00:48:39;28.33;;;21.63;;
58412;SDS011;44209;52.952;6.790;2023-05-07T00:51:05;26.55;;;21.05;;
58412;SDS011;44209;52.952;6.790;2023-05-07T00:53:31;26.92;;;21.02;;
58412;SDS011;44209;52.952;6.790;2023-05-07T00:55:56;29.17;;;22.40;;
58412;SDS011;44209;52.952;6.790;2023-05-07T00:58:22;30.35;;;22.13;;
58412;SDS011;44209;52.952;6.790;2023-05-07T01:00:49;30.13;;;23.25;;
58412;SDS011;44209;52.952;6.790;2023-05-07T01:03:15;28.80;;;22.40;;
58412;SDS011;44209;52.952;6.790;2023-05-07T01:05:41;28.85;;;21.95;;
58412;SDS011;44209;52.952;6.790;2023-05-07T01:08:08;29.42;;;22.38;;
58412;SDS011;44209;52.952;6.790;2023-05-07T01:10:35;28.50;;;21.92;;
58412;SDS011;44209;52.952;6.790;2023-05-07T01:13:01;29.80;;;23.42;;
58412;SDS011;44209;52.952;6.790;2023-05-07T01:15:27;29.13;;;23.05;;
58412;SDS011;44209;52.952;6.790;2023-05-07T01:17:53;28.77;;;23.42;;
58412;SDS011;44209;52.952;6.790;2023-05-07T01:20:21;31.23;;;24.08;;
58412;SDS011;44209;52.952;6.790;2023-05-07T01:22:48;31.30;;;23.48;;
58412;SDS011;44209;52.952;6.790;2023-05-07T01:25:14;31.38;;;24.45;;
58412;SDS011;44209;52.952;6.790;2023-05-07T01:27:41;33.05;;;24.45;;
58412;SDS011;44209;52.952;6.790;2023-05-07T01:30:07;29.52;;;24.35;;
58412;SDS011;44209;52.952;6.790;2023-05-07T01:33:08;33.08;;;24.50;;
58412;SDS011;44209;52.952;6.790;2023-05-07T01:35:30;32.83;;;24.30;;
58412;SDS011;44209;52.952;6.790;2023-05-07T01:40:29;33.90;;;24.85;;
58412;SDS011;44209;52.952;6.790;2023-05-07T01:42:55;36.00;;;24.95;;
58412;SDS011;44209;52.952;6.790;2023-05-07T01:45:21;34.13;;;25.42;;
58412;SDS011;44209;52.952;6.790;2023-05-07T01:47:52;35.83;;;26.48;;
58412;SDS011;44209;52.952;6.790;2023-05-07T01:50:19;36.20;;;27.15;;
58412;SDS011;44209;52.952;6.790;2023-05-07T01:52:46;35.85;;;25.85;;
58412;SDS011;44209;52.952;6.790;2023-05-07T01:55:14;37.17;;;27.08;;
58412;SDS011;44209;52.952;6.790;2023-05-07T01:57:40;36.00;;;26.58;;
58412;SDS011;44209;52.952;6.790;2023-05-07T02:00:06;37.72;;;26.80;;
58412;SDS011;44209;52.952;6.790;2023-05-07T02:02:33;34.70;;;26.23;;
58412;SDS011;44209;52.952;6.790;2023-05-07T02:04:59;37.65;;;26.60;;
58412;SDS011;44209;52.952;6.790;2023-05-07T02:07:28;36.22;;;26.98;;
58412;SDS011;44209;52.952;6.790;2023-05-07T02:09:54;36.30;;;27.40;;
58412;SDS011;44209;52.952;6.790;2023-05-07T02:12:20;39.83;;;28.08;;
58412;SDS011;44209;52.952;6.790;2023-05-07T02:14:46;37.40;;;27.67;;
58412;SDS011;44209;52.952;6.790;2023-05-07T02:17:12;39.03;;;28.42;;
58412;SDS011;44209;52.952;6.790;2023-05-07T02:19:38;41.20;;;28.80;;
58412;SDS011;44209;52.952;6.790;2023-05-07T02:22:04;40.90;;;29.35;;
58412;SDS011;44209;52.952;6.790;2023-05-07T02:24:29;39.22;;;29.83;;
58412;SDS011;44209;52.952;6.790;2023-05-07T02:26:55;41.65;;;29.33;;
58412;SDS011;44209;52.952;6.790;2023-05-07T02:29:21;43.35;;;29.95;;
58412;SDS011;44209;52.952;6.790;2023-05-07T02:31:46;41.78;;;30.17;;
58412;SDS011;44209;52.952;6.790;2023-05-07T02:34:16;44.17;;;30.20;;
58412;SDS011;44209;52.952;6.790;2023-05-07T02:36:42;44.95;;;30.92;;
58412;SDS011;44209;52.952;6.790;2023-05-07T02:39:08;50.08;;;32.38;;
58412;SDS011;44209;52.952;6.790;2023-05-07T02:41:33;48.58;;;32.72;;
58412;SDS011;44209;52.952;6.790;2023-05-07T02:43:59;48.38;;;32.88;;
58412;SDS011;44209;52.952;6.790;2023-05-07T02:46:25;47.38;;;31.92;;
58412;SDS011;44209;52.952;6.790;2023-05-07T02:48:51;48.75;;;33.38;;
58412;SDS011;44209;52.952;6.790;2023-05-07T02:51:20;47.42;;;32.05;;
58412;SDS011;44209;52.952;6.790;2023-05-07T02:53:47;47.83;;;33.20;;
58412;SDS011;44209;52.952;6.790;2023-05-07T02:56:13;55.05;;;33.70;;
58412;SDS011;44209;52.952;6.790;2023-05-07T02:58:39;46.92;;;32.70;;
58412;SDS011;44209;52.952;6.790;2023-05-07T03:01:05;53.00;;;33.92;;
58412;SDS011;44209;52.952;6.790;2023-05-07T03:03:31;52.35;;;33.63;;
58412;SDS011;44209;52.952;6.790;2023-05-07T03:05:57;52.28;;;33.60;;
58412;SDS011;44209;52.952;6.790;2023-05-07T03:08:22;54.63;;;34.00;;
58412;SDS011;44209;52.952;6.790;2023-05-07T03:10:49;48.95;;;33.70;;
58412;SDS011;44209;52.952;6.790;2023-05-07T03:13:14;55.35;;;34.40;;
58412;SDS011;44209;52.952;6.790;2023-05-07T03:15:40;53.75;;;34.47;;
58412;SDS011;44209;52.952;6.790;2023-05-07T03:18:06;49.50;;;33.88;;
58412;SDS011;44209;52.952;6.790;2023-05-07T03:20:31;51.35;;;33.70;;
58412;SDS011;44209;52.952;6.790;2023-05-07T03:22:57;53.03;;;34.15;;
58412;SDS011;44209;52.952;6.790;2023-05-07T03:25:23;53.72;;;34.20;;
58412;SDS011;44209;52.952;6.790;2023-05-07T03:27:49;52.22;;;34.35;;
58412;SDS011;44209;52.952;6.790;2023-05-07T03:30:14;53.55;;;34.25;;
58412;SDS011;44209;52.952;6.790;2023-05-07T03:32:40;52.17;;;34.42;;
58412;SDS011;44209;52.952;6.790;2023-05-07T03:35:06;51.28;;;33.78;;
58412;SDS011;44209;52.952;6.790;2023-05-07T03:37:32;48.83;;;32.45;;
58412;SDS011;44209;52.952;6.790;2023-05-07T03:39:58;51.08;;;33.40;;
58412;SDS011;44209;52.952;6.790;2023-05-07T03:42:24;49.30;;;33.20;;
58412;SDS011;44209;52.952;6.790;2023-05-07T03:44:50;46.90;;;33.22;;
58412;SDS011;44209;52.952;6.790;2023-05-07T03:47:16;50.63;;;34.58;;
58412;SDS011;44209;52.952;6.790;2023-05-07T03:49:41;46.08;;;32.42;;
58412;SDS011;44209;52.952;6.790;2023-05-07T03:52:07;46.75;;;31.80;;
58412;SDS011;44209;52.952;6.790;2023-05-07T03:54:33;48.47;;;31.50;;
58412;SDS011;44209;52.952;6.790;2023-05-07T03:56:59;48.28;;;32.33;;
58412;SDS011;44209;52.952;6.790;2023-05-07T03:59:24;48.03;;;34.03;;
58412;SDS011;44209;52.952;6.790;2023-05-07T04:01:50;50.75;;;33.28;;
58412;SDS011;44209;52.952;6.790;2023-05-07T04:04:16;49.70;;;32.22;;
58412;SDS011;44209;52.952;6.790;2023-05-07T04:06:41;48.08;;;30.67;;
58412;SDS011;44209;52.952;6.790;2023-05-07T04:09:07;47.25;;;33.10;;
58412;SDS011;44209;52.952;6.790;2023-05-07T04:11:33;44.83;;;31.70;;
58412;SDS011;44209;52.952;6.790;2023-05-07T04:14:00;47.10;;;32.30;;
58412;SDS011;44209;52.952;6.790;2023-05-07T04:16:26;45.47;;;30.88;;
58412;SDS011;44209;52.952;6.790;2023-05-07T04:18:51;50.35;;;32.05;;
58412;SDS011;44209;52.952;6.790;2023-05-07T04:21:18;43.50;;;30.23;;
58412;SDS011;44209;52.952;6.790;2023-05-07T04:23:45;43.10;;;30.50;;
58412;SDS011;44209;52.952;6.790;2023-05-07T04:26:12;43.63;;;29.45;;
58412;SDS011;44209;52.952;6.790;2023-05-07T04:28:38;40.63;;;29.45;;
58412;SDS011;44209;52.952;6.790;2023-05-07T04:31:04;41.28;;;29.65;;
58412;SDS011;44209;52.952;6.790;2023-05-07T04:33:30;43.45;;;29.80;;
58412;SDS011;44209;52.952;6.790;2023-05-07T04:35:56;44.08;;;29.80;;
58412;SDS011;44209;52.952;6.790;2023-05-07T04:38:27;44.80;;;30.58;;
58412;SDS011;44209;52.952;6.790;2023-05-07T04:40:56;44.45;;;29.98;;
58412;SDS011;44209;52.952;6.790;2023-05-07T04:43:31;42.17;;;28.45;;
58412;SDS011;44209;52.952;6.790;2023-05-07T04:45:57;40.38;;;28.85;;
58412;SDS011;44209;52.952;6.790;2023-05-07T04:48:23;40.20;;;29.00;;
58412;SDS011;44209;52.952;6.790;2023-05-07T04:50:52;36.97;;;28.53;;
58412;SDS011;44209;52.952;6.790;2023-05-07T04:53:17;39.42;;;28.83;;
58412;SDS011;44209;52.952;6.790;2023-05-07T04:55:44;39.45;;;28.08;;
58412;SDS011;44209;52.952;6.790;2023-05-07T04:58:10;39.88;;;28.17;;
58412;SDS011;44209;52.952;6.790;2023-05-07T05:00:37;39.67;;;28.75;;
58412;SDS011;44209;52.952;6.790;2023-05-07T05:03:04;36.55;;;27.50;;
58412;SDS011;44209;52.952;6.790;2023-05-07T05:05:31;38.28;;;28.60;;
58412;SDS011;44209;52.952;6.790;2023-05-07T05:07:56;39.67;;;26.92;;
58412;SDS011;44209;52.952;6.790;2023-05-07T05:10:22;38.92;;;26.67;;
58412;SDS011;44209;52.952;6.790;2023-05-07T05:12:48;35.80;;;27.13;;
58412;SDS011;44209;52.952;6.790;2023-05-07T05:15:13;34.72;;;26.25;;
58412;SDS011;44209;52.952;6.790;2023-05-07T05:17:40;31.70;;;24.67;;
58412;SDS011;44209;52.952;6.790;2023-05-07T05:20:05;35.03;;;24.75;;
58412;SDS011;44209;52.952;6.790;2023-05-07T05:22:32;34.15;;;25.33;;
58412;SDS011;44209;52.952;6.790;2023-05-07T05:24:57;35.28;;;26.23;;
58412;SDS011;44209;52.952;6.790;2023-05-07T05:27:23;34.58;;;26.30;;
58412;SDS011;44209;52.952;6.790;2023-05-07T05:29:49;35.72;;;26.13;;
58412;SDS011;44209;52.952;6.790;2023-05-07T05:32:15;32.03;;;24.45;;
58412;SDS011;44209;52.952;6.790;2023-05-07T05:34:41;34.25;;;24.75;;
58412;SDS011;44209;52.952;6.790;2023-05-07T05:37:06;33.90;;;25.02;;
58412;SDS011;44209;52.952;6.790;2023-05-07T05:39:32;34.58;;;25.25;;
58412;SDS011;44209;52.952;6.790;2023-05-07T05:41:58;33.72;;;25.77;;
58412;SDS011;44209;52.952;6.790;2023-05-07T05:44:23;35.85;;;25.80;;
58412;SDS011;44209;52.952;6.790;2023-05-07T05:46:50;37.92;;;26.15;;
58412;SDS011;44209;52.952;6.790;2023-05-07T05:49:16;34.45;;;24.85;;
58412;SDS011;44209;52.952;6.790;2023-05-07T05:51:41;36.28;;;26.33;;
58412;SDS011;44209;52.952;6.790;2023-05-07T05:54:07;36.50;;;25.88;;
58412;SDS011;44209;52.952;6.790;2023-05-07T05:56:33;34.72;;;25.95;;
58412;SDS011;44209;52.952;6.790;2023-05-07T05:58:59;37.85;;;26.42;;
58412;SDS011;44209;52.952;6.790;2023-05-07T06:01:25;34.55;;;24.88;;
58412;SDS011;44209;52.952;6.790;2023-05-07T06:03:50;35.38;;;25.40;;
58412;SDS011;44209;52.952;6.790;2023-05-07T06:06:17;35.42;;;26.73;;
58412;SDS011;44209;52.952;6.790;2023-05-07T06:08:42;34.40;;;26.58;;
58412;SDS011;44209;52.952;6.790;2023-05-07T06:11:08;38.63;;;27.55;;
58412;SDS011;44209;52.952;6.790;2023-05-07T06:13:34;35.30;;;26.25;;
58412;SDS011;44209;52.952;6.790;2023-05-07T06:15:59;38.38;;;25.98;;
58412;SDS011;44209;52.952;6.790;2023-05-07T06:18:25;33.17;;;25.25;;
58412;SDS011;44209;52.952;6.790;2023-05-07T06:20:51;33.83;;;25.98;;
58412;SDS011;44209;52.952;6.790;2023-05-07T06:23:18;35.25;;;25.38;;
58412;SDS011;44209;52.952;6.790;2023-05-07T06:25:49;33.42;;;25.05;;
58412;SDS011;44209;52.952;6.790;2023-05-07T06:28:15;34.92;;;26.10;;
58412;SDS011;44209;52.952;6.790;2023-05-07T06:30:41;32.33;;;24.88;;
58412;SDS011;44209;52.952;6.790;2023-05-07T06:33:07;36.00;;;26.35;;
58412;SDS011;44209;52.952;6.790;2023-05-07T06:35:33;32.38;;;25.00;;
58412;SDS011;44209;52.952;6.790;2023-05-07T06:37:59;32.28;;;24.75;;
58412;SDS011;44209;52.952;6.790;2023-05-07T06:40:25;36.08;;;27.08;;
58412;SDS011;44209;52.952;6.790;2023-05-07T06:42:51;31.38;;;25.67;;
58412;SDS011;44209;52.952;6.790;2023-05-07T06:45:17;34.65;;;26.17;;
58412;SDS011;44209;52.952;6.790;2023-05-07T06:47:42;36.35;;;26.50;;
58412;SDS011;44209;52.952;6.790;2023-05-07T06:50:08;36.33;;;25.80;;
58412;SDS011;44209;52.952;6.790;2023-05-07T06:52:34;35.53;;;25.80;;
58412;SDS011;44209;52.952;6.790;2023-05-07T06:55:00;35.05;;;26.98;;
58412;SDS011;44209;52.952;6.790;2023-05-07T06:57:26;37.00;;;26.02;;
58412;SDS011;44209;52.952;6.790;2023-05-07T06:59:52;35.42;;;26.23;;
58412;SDS011;44209;52.952;6.790;2023-05-07T07:02:18;34.03;;;26.40;;
58412;SDS011;44209;52.952;6.790;2023-05-07T07:04:43;35.83;;;26.10;;
58412;SDS011;44209;52.952;6.790;2023-05-07T07:07:10;37.30;;;26.95;;
58412;SDS011;44209;52.952;6.790;2023-05-07T07:09:35;40.30;;;28.30;;
58412;SDS011;44209;52.952;6.790;2023-05-07T07:12:01;39.78;;;28.33;;
58412;SDS011;44209;52.952;6.790;2023-05-07T07:14:27;39.47;;;27.90;;
58412;SDS011;44209;52.952;6.790;2023-05-07T07:16:53;37.80;;;27.63;;
58412;SDS011;44209;52.952;6.790;2023-05-07T07:19:18;37.58;;;27.08;;
58412;SDS011;44209;52.952;6.790;2023-05-07T07:21:45;38.97;;;27.70;;
58412;SDS011;44209;52.952;6.790;2023-05-07T07:24:11;39.17;;;28.00;;
58412;SDS011;44209;52.952;6.790;2023-05-07T07:26:37;38.97;;;26.63;;
58412;SDS011;44209;52.952;6.790;2023-05-07T07:29:05;39.20;;;26.85;;
58412;SDS011;44209;52.952;6.790;2023-05-07T07:31:32;37.85;;;27.75;;
58412;SDS011;44209;52.952;6.790;2023-05-07T07:33:57;37.58;;;27.48;;
58412;SDS011;44209;52.952;6.790;2023-05-07T07:36:23;35.38;;;25.95;;
58412;SDS011;44209;52.952;6.790;2023-05-07T07:38:49;36.25;;;26.73;;
58412;SDS011;44209;52.952;6.790;2023-05-07T07:41:14;37.42;;;27.65;;
58412;SDS011;44209;52.952;6.790;2023-05-07T07:43:40;37.00;;;26.73;;
58412;SDS011;44209;52.952;6.790;2023-05-07T07:46:06;37.22;;;26.52;;
58412;SDS011;44209;52.952;6.790;2023-05-07T07:48:31;35.95;;;25.95;;
58412;SDS011;44209;52.952;6.790;2023-05-07T07:50:57;42.13;;;29.95;;
58412;SDS011;44209;52.952;6.790;2023-05-07T07:53:23;37.85;;;27.38;;
58412;SDS011;44209;52.952;6.790;2023-05-07T07:55:48;39.88;;;28.52;;
58412;SDS011;44209;52.952;6.790;2023-05-07T07:58:14;36.35;;;27.67;;
58412;SDS011;44209;52.952;6.790;2023-05-07T08:00:40;38.78;;;28.02;;
58412;SDS011;44209;52.952;6.790;2023-05-07T08:03:05;36.28;;;27.33;;
58412;SDS011;44209;52.952;6.790;2023-05-07T08:05:34;36.08;;;27.33;;
58412;SDS011;44209;52.952;6.790;2023-05-07T08:08:01;38.83;;;28.27;;
58412;SDS011;44209;52.952;6.790;2023-05-07T08:10:26;36.47;;;27.58;;
58412;SDS011;44209;52.952;6.790;2023-05-07T08:12:52;38.63;;;27.58;;
58412;SDS011;44209;52.952;6.790;2023-05-07T08:15:18;37.55;;;27.08;;
58412;SDS011;44209;52.952;6.790;2023-05-07T08:17:44;37.65;;;27.58;;
58412;SDS011;44209;52.952;6.790;2023-05-07T08:20:09;37.08;;;27.48;;
58412;SDS011;44209;52.952;6.790;2023-05-07T08:22:35;34.67;;;25.25;;
58412;SDS011;44209;52.952;6.790;2023-05-07T08:25:02;35.83;;;27.25;;
58412;SDS011;44209;52.952;6.790;2023-05-07T08:27:28;36.55;;;25.67;;
58412;SDS011;44209;52.952;6.790;2023-05-07T08:29:54;35.47;;;26.75;;
58412;SDS011;44209;52.952;6.790;2023-05-07T08:32:20;35.28;;;26.80;;
58412;SDS011;44209;52.952;6.790;2023-05-07T08:34:47;36.95;;;25.45;;
58412;SDS011;44209;52.952;6.790;2023-05-07T08:37:12;33.28;;;25.73;;
58412;SDS011;44209;52.952;6.790;2023-05-07T08:39:38;33.72;;;24.88;;
58412;SDS011;44209;52.952;6.790;2023-05-07T08:42:04;33.92;;;25.00;;
58412;SDS011;44209;52.952;6.790;2023-05-07T08:44:32;34.50;;;25.98;;
58412;SDS011;44209;52.952;6.790;2023-05-07T08:47:00;33.33;;;25.23;;
58412;SDS011;44209;52.952;6.790;2023-05-07T08:49:27;36.35;;;25.40;;
58412;SDS011;44209;52.952;6.790;2023-05-07T08:51:54;34.15;;;25.42;;
58412;SDS011;44209;52.952;6.790;2023-05-07T08:54:21;32.20;;;24.23;;
58412;SDS011;44209;52.952;6.790;2023-05-07T08:56:47;32.92;;;24.20;;
58412;SDS011;44209;52.952;6.790;2023-05-07T08:59:13;32.08;;;23.85;;
58412;SDS011;44209;52.952;6.790;2023-05-07T09:01:39;28.05;;;22.70;;
58412;SDS011;44209;52.952;6.790;2023-05-07T09:04:05;29.20;;;22.25;;
58412;SDS011;44209;52.952;6.790;2023-05-07T09:06:32;34.22;;;24.65;;
58412;SDS011;44209;52.952;6.790;2023-05-07T09:08:58;28.33;;;22.85;;
58412;SDS011;44209;52.952;6.790;2023-05-07T09:11:26;29.73;;;23.00;;
58412;SDS011;44209;52.952;6.790;2023-05-07T09:13:55;31.58;;;23.67;;
58412;SDS011;44209;52.952;6.790;2023-05-07T09:16:23;28.75;;;23.00;;
58412;SDS011;44209;52.952;6.790;2023-05-07T09:18:53;30.95;;;23.45;;
58412;SDS011;44209;52.952;6.790;2023-05-07T09:21:20;27.85;;;21.90;;
58412;SDS011;44209;52.952;6.790;2023-05-07T09:23:51;26.85;;;20.95;;
58412;SDS011;44209;52.952;6.790;2023-05-07T09:26:18;25.67;;;21.15;;
58412;SDS011;44209;52.952;6.790;2023-05-07T09:28:45;26.13;;;21.05;;
58412;SDS011;44209;52.952;6.790;2023-05-07T09:31:11;26.45;;;21.15;;
58412;SDS011;44209;52.952;6.790;2023-05-07T09:33:38;27.25;;;21.42;;
58412;SDS011;44209;52.952;6.790;2023-05-07T09:36:05;26.48;;;21.60;;
58412;SDS011;44209;52.952;6.790;2023-05-07T09:38:32;27.55;;;21.38;;
58412;SDS011;44209;52.952;6.790;2023-05-07T09:41:03;27.10;;;21.73;;
58412;SDS011;44209;52.952;6.790;2023-05-07T09:43:34;26.58;;;21.65;;
58412;SDS011;44209;52.952;6.790;2023-05-07T09:46:02;27.30;;;20.67;;
58412;SDS011;44209;52.952;6.790;2023-05-07T09:48:36;23.67;;;20.13;;
58412;SDS011;44209;52.952;6.790;2023-05-07T09:51:05;25.13;;;20.08;;
58412;SDS011;44209;52.952;6.790;2023-05-07T09:53:36;24.92;;;20.33;;
58412;SDS011;44209;52.952;6.790;2023-05-07T09:56:04;26.10;;;20.58;;
58412;SDS011;44209;52.952;6.790;2023-05-07T09:58:30;26.63;;;20.88;;
58412;SDS011;44209;52.952;6.790;2023-05-07T10:00:58;25.25;;;20.45;;
58412;SDS011;44209;52.952;6.790;2023-05-07T10:03:24;23.90;;;19.85;;
58412;SDS011;44209;52.952;6.790;2023-05-07T10:05:52;20.98;;;18.05;;
58412;SDS011;44209;52.952;6.790;2023-05-07T10:08:19;24.38;;;19.95;;
58412;SDS011;44209;52.952;6.790;2023-05-07T10:10:45;24.92;;;20.35;;
58412;SDS011;44209;52.952;6.790;2023-05-07T10:13:12;23.50;;;20.10;;
58412;SDS011;44209;52.952;6.790;2023-05-07T10:15:38;24.08;;;20.73;;
58412;SDS011;44209;52.952;6.790;2023-05-07T10:18:04;23.65;;;19.77;;
58412;SDS011;44209;52.952;6.790;2023-05-07T10:20:33;21.23;;;18.73;;
58412;SDS011;44209;52.952;6.790;2023-05-07T10:23:01;22.83;;;19.65;;
58412;SDS011;44209;52.952;6.790;2023-05-07T10:25:30;25.60;;;21.05;;
58412;SDS011;44209;52.952;6.790;2023-05-07T10:27:59;23.60;;;20.25;;
58412;SDS011;44209;52.952;6.790;2023-05-07T10:33:35;25.13;;;20.27;;
58412;SDS011;44209;52.952;6.790;2023-05-07T10:36:02;22.92;;;19.40;;
58412;SDS011;44209;52.952;6.790;2023-05-07T10:38:30;21.85;;;19.40;;
58412;SDS011;44209;52.952;6.790;2023-05-07T10:40:56;22.42;;;20.02;;
58412;SDS011;44209;52.952;6.790;2023-05-07T10:43:22;22.80;;;19.33;;
58412;SDS011;44209;52.952;6.790;2023-05-07T10:51:31;21.08;;;18.33;;
58412;SDS011;44209;52.952;6.790;2023-05-07T10:56:35;23.83;;;19.45;;
58412;SDS011;44209;52.952;6.790;2023-05-07T11:01:55;22.02;;;19.67;;
58412;SDS011;44209;52.952;6.790;2023-05-07T11:04:21;22.13;;;18.98;;
58412;SDS011;44209;52.952;6.790;2023-05-07T11:17:35;22.95;;;20.27;;
58412;SDS011;44209;52.952;6.790;2023-05-07T11:20:36;21.60;;;18.67;;
58412;SDS011;44209;52.952;6.790;2023-05-07T11:28:38;23.00;;;20.38;;
58412;SDS011;44209;52.952;6.790;2023-05-07T11:31:05;21.83;;;19.25;;
58412;SDS011;44209;52.952;6.790;2023-05-07T11:33:31;21.50;;;19.10;;
58412;SDS011;44209;52.952;6.790;2023-05-07T11:35:57;21.42;;;19.23;;
58412;SDS011;44209;52.952;6.790;2023-05-07T11:38:25;22.00;;;19.58;;
58412;SDS011;44209;52.952;6.790;2023-05-07T11:40:51;22.27;;;19.88;;
58412;SDS011;44209;52.952;6.790;2023-05-07T11:43:18;22.80;;;20.40;;
58412;SDS011;44209;52.952;6.790;2023-05-07T11:45:44;22.00;;;19.33;;
58412;SDS011;44209;52.952;6.790;2023-05-07T11:48:12;22.85;;;19.75;;
58412;SDS011;44209;52.952;6.790;2023-05-07T11:50:51;21.98;;;19.77;;
58412;SDS011;44209;52.952;6.790;2023-05-07T11:53:19;22.38;;;19.98;;
58412;SDS011;44209;52.952;6.790;2023-05-07T11:55:45;23.08;;;19.75;;
58412;SDS011;44209;52.952;6.790;2023-05-07T11:58:12;22.83;;;20.40;;
58412;SDS011;44209;52.952;6.790;2023-05-07T12:00:51;23.02;;;20.20;;
58412;SDS011;44209;52.952;6.790;2023-05-07T12:03:18;22.15;;;19.92;;
58412;SDS011;44209;52.952;6.790;2023-05-07T12:05:45;22.52;;;19.30;;
58412;SDS011;44209;52.952;6.790;2023-05-07T12:08:18;21.45;;;19.25;;
58412;SDS011;44209;52.952;6.790;2023-05-07T12:10:44;22.05;;;19.75;;
58412;SDS011;44209;52.952;6.790;2023-05-07T12:13:19;21.27;;;19.10;;
58412;SDS011;44209;52.952;6.790;2023-05-07T12:15:46;21.50;;;19.20;;
58412;SDS011;44209;52.952;6.790;2023-05-07T12:18:15;21.60;;;19.30;;
58412;SDS011;44209;52.952;6.790;2023-05-07T12:20:41;21.02;;;18.38;;
58412;SDS011;44209;52.952;6.790;2023-05-07T12:23:07;21.45;;;19.15;;
58412;SDS011;44209;52.952;6.790;2023-05-07T12:25:38;20.88;;;18.73;;
58412;SDS011;44209;52.952;6.790;2023-05-07T12:28:05;20.60;;;18.50;;
58412;SDS011;44209;52.952;6.790;2023-05-07T12:30:38;21.05;;;18.80;;
58412;SDS011;44209;52.952;6.790;2023-05-07T12:33:04;21.60;;;19.30;;
58412;SDS011;44209;52.952;6.790;2023-05-07T12:35:30;20.75;;;18.70;;
58412;SDS011;44209;52.952;6.790;2023-05-07T12:37:57;21.77;;;19.55;;
58412;SDS011;44209;52.952;6.790;2023-05-07T12:40:29;20.90;;;18.88;;
58412;SDS011;44209;52.952;6.790;2023-05-07T12:43:04;21.65;;;19.55;;
58412;SDS011;44209;52.952;6.790;2023-05-07T12:45:30;20.88;;;18.80;;
58412;SDS011;44209;52.952;6.790;2023-05-07T12:47:56;20.20;;;18.13;;
58412;SDS011;44209;52.952;6.790;2023-05-07T12:50:26;20.70;;;18.48;;
58412;SDS011;44209;52.952;6.790;2023-05-07T12:52:56;21.63;;;19.42;;
58412;SDS011;44209;52.952;6.790;2023-05-07T12:55:22;19.48;;;17.58;;
58412;SDS011;44209;52.952;6.790;2023-05-07T12:57:48;20.05;;;18.15;;
58412;SDS011;44209;52.952;6.790;2023-05-07T13:00:15;20.20;;;18.10;;
58412;SDS011;44209;52.952;6.790;2023-05-07T13:02:42;18.95;;;17.05;;
58412;SDS011;44209;52.952;6.790;2023-05-07T13:05:11;19.70;;;17.88;;
58412;SDS011;44209;52.952;6.790;2023-05-07T13:07:37;19.33;;;17.35;;
58412;SDS011;44209;52.952;6.790;2023-05-07T13:10:03;19.05;;;17.02;;
58412;SDS011;44209;52.952;6.790;2023-05-07T13:12:29;21.00;;;18.88;;
58412;SDS011;44209;52.952;6.790;2023-05-07T13:14:55;18.60;;;16.70;;
58412;SDS011;44209;52.952;6.790;2023-05-07T13:17:21;18.80;;;16.92;;
58412;SDS011;44209;52.952;6.790;2023-05-07T13:19:46;18.73;;;16.58;;
58412;SDS011;44209;52.952;6.790;2023-05-07T13:22:12;17.38;;;15.68;;
58412;SDS011;44209;52.952;6.790;2023-05-07T13:24:37;18.10;;;16.15;;
58412;SDS011;44209;52.952;6.790;2023-05-07T13:27:06;17.27;;;15.52;;
58412;SDS011;44209;52.952;6.790;2023-05-07T13:29:32;16.48;;;14.88;;
58412;SDS011;44209;52.952;6.790;2023-05-07T13:31:58;17.80;;;16.00;;
58412;SDS011;44209;52.952;6.790;2023-05-07T13:34:24;17.35;;;15.57;;
58412;SDS011;44209;52.952;6.790;2023-05-07T13:36:50;18.92;;;17.02;;
58412;SDS011;44209;52.952;6.790;2023-05-07T13:39:16;17.90;;;16.00;;
58412;SDS011;44209;52.952;6.790;2023-05-07T13:41:42;18.30;;;16.40;;
58412;SDS011;44209;52.952;6.790;2023-05-07T13:44:07;17.95;;;16.15;;
58412;SDS011;44209;52.952;6.790;2023-05-07T13:46:33;19.13;;;17.33;;
58412;SDS011;44209;52.952;6.790;2023-05-07T13:48:59;19.25;;;17.45;;
58412;SDS011;44209;52.952;6.790;2023-05-07T13:51:24;19.00;;;17.20;;
58412;SDS011;44209;52.952;6.790;2023-05-07T13:53:50;19.40;;;17.55;;
58412;SDS011;44209;52.952;6.790;2023-05-07T13:56:17;19.17;;;17.27;;
58412;SDS011;44209;52.952;6.790;2023-05-07T13:58:43;18.13;;;16.48;;
58412;SDS011;44209;52.952;6.790;2023-05-07T14:01:09;18.45;;;16.65;;
58412;SDS011;44209;52.952;6.790;2023-05-07T14:03:35;17.58;;;15.98;;
58412;SDS011;44209;52.952;6.790;2023-05-07T14:06:03;17.40;;;15.80;;
58412;SDS011;44209;52.952;6.790;2023-05-07T14:08:28;18.88;;;17.15;;
58412;SDS011;44209;52.952;6.790;2023-05-07T14:10:54;17.80;;;16.20;;
58412;SDS011;44209;52.952;6.790;2023-05-07T14:13:20;17.65;;;15.93;;
58412;SDS011;44209;52.952;6.790;2023-05-07T14:15:46;17.15;;;15.63;;
58412;SDS011;44209;52.952;6.790;2023-05-07T14:18:13;18.02;;;16.23;;
58412;SDS011;44209;52.952;6.790;2023-05-07T14:20:40;16.58;;;15.07;;
58412;SDS011;44209;52.952;6.790;2023-05-07T14:23:06;16.75;;;15.27;;
58412;SDS011;44209;52.952;6.790;2023-05-07T14:25:31;17.08;;;15.48;;
58412;SDS011;44209;52.952;6.790;2023-05-07T14:27:57;17.17;;;15.52;;
58412;SDS011;44209;52.952;6.790;2023-05-07T14:30:23;16.38;;;14.77;;
58412;SDS011;44209;52.952;6.790;2023-05-07T14:32:49;16.77;;;15.27;;
58412;SDS011;44209;52.952;6.790;2023-05-07T14:35:15;17.65;;;16.05;;
58412;SDS011;44209;52.952;6.790;2023-05-07T14:37:42;17.08;;;15.38;;
58412;SDS011;44209;52.952;6.790;2023-05-07T14:40:08;16.42;;;15.02;;
58412;SDS011;44209;52.952;6.790;2023-05-07T14:42:34;17.98;;;16.27;;
58412;SDS011;44209;52.952;6.790;2023-05-07T14:45:00;16.45;;;14.95;;
58412;SDS011;44209;52.952;6.790;2023-05-07T14:47:26;17.52;;;15.85;;
58412;SDS011;44209;52.952;6.790;2023-05-07T14:49:51;17.90;;;16.02;;